Time;durP1;ratioP1;P1;durP2;ratioP2;P2;SDS_P1;SDS_P2;PMS_P1;PMS_P2;Temp;Humidity;BMP_temperature;BMP_pressure;BME280_temperature;BME280_humidity;BME280_pressure;Samples;Min_cycle;Max_cycle;Signal;HPM_P1;HPM_P2
2020/12/12 00:02:15;;;;;;;30.27;27.63;;;4.00;99.90;;;;;;5073886;28;20204;-69
2020/12/12 00:04:41;;;;;;;27.60;25.20;;;4.00;99.90;;;;;;5073768;28;20221;-69
2020/12/12 00:07:07;;;;;;;33.50;30.63;;;4.00;99.90;;;;;;5073553;28;20204;-69
2020/12/12 00:09:33;;;;;;;34.45;31.52;;;4.00;99.90;;;;;;5073104;28;20256;-69
2020/12/12 00:11:58;;;;;;;33.47;30.60;;;4.00;99.90;;;;;;5073936;28;20253;-69
2020/12/12 00:14:24;;;;;;;34.17;31.63;;;4.00;99.90;;;;;;5094042;28;20177;-69
2020/12/12 00:16:53;;;;;;;34.67;31.80;;;3.90;99.90;;;;;;5093702;28;20730;-70
2020/12/12 00:19:19;;;;;;;32.33;29.45;;;3.90;99.90;;;;;;5077697;28;20181;-69
2020/12/12 00:21:55;;;;;;;32.53;29.23;;;3.90;99.90;;;;;;5076152;28;20600;-69
2020/12/12 00:24:21;;;;;;;34.55;31.63;;;3.90;99.90;;;;;;5076201;28;20193;-69
2020/12/12 00:26:47;;;;;;;33.70;30.35;;;3.90;99.90;;;;;;5075506;28;20188;-69
2020/12/12 00:29:14;;;;;;;33.25;30.50;;;3.80;99.90;;;;;;5075807;28;20591;-69
2020/12/12 00:31:41;;;;;;;29.73;26.98;;;3.80;99.90;;;;;;5075915;28;20181;-69
2020/12/12 00:34:07;;;;;;;34.28;31.27;;;3.70;99.90;;;;;;5075384;28;20185;-69
2020/12/12 00:36:40;;;;;;;34.08;30.58;;;3.70;99.90;;;;;;5075208;28;20193;-69
2020/12/12 00:39:06;;;;;;;36.88;33.38;;;3.60;99.90;;;;;;5076028;28;20576;-69
2020/12/12 00:41:39;;;;;;;32.88;29.58;;;3.60;99.90;;;;;;5075485;28;20196;-69
2020/12/12 00:44:05;;;;;;;32.67;30.08;;;3.60;99.90;;;;;;5075780;28;20179;-69
2020/12/12 00:46:32;;;;;;;29.55;26.65;;;3.60;99.90;;;;;;5075200;28;20193;-69
2020/12/12 00:48:57;;;;;;;31.30;28.10;;;3.60;99.90;;;;;;5075683;28;20173;-69
2020/12/12 00:51:23;;;;;;;31.27;28.37;;;3.60;99.90;;;;;;5075760;28;20176;-69
2020/12/12 00:53:50;;;;;;;29.17;26.33;;;3.70;99.90;;;;;;5075525;28;20256;-69
2020/12/12 00:56:16;;;;;;;31.40;28.20;;;3.70;99.90;;;;;;5074944;28;20284;-69
2020/12/12 00:58:43;;;;;;;34.75;29.25;;;3.70;99.90;;;;;;5075405;28;20226;-69
2020/12/12 01:01:10;;;;;;;31.70;28.98;;;3.70;99.90;;;;;;5075326;28;20173;-69
2020/12/12 01:03:35;;;;;;;36.13;32.92;;;3.70;99.90;;;;;;5075387;28;20225;-69
2020/12/12 01:06:01;;;;;;;28.33;26.00;;;3.70;99.90;;;;;;5074868;28;20675;-69
2020/12/12 01:08:27;;;;;;;31.57;28.13;;;3.70;99.90;;;;;;5075007;28;20486;-69
2020/12/12 01:10:52;;;;;;;32.10;29.50;;;3.70;99.90;;;;;;5075077;28;20400;-69
2020/12/12 01:13:18;;;;;;;30.57;27.67;;;3.70;99.90;;;;;;5074962;28;20161;-69
2020/12/12 01:15:44;;;;;;;28.37;25.90;;;3.80;99.90;;;;;;5075017;28;20647;-69
2020/12/12 01:18:10;;;;;;;30.05;27.40;;;3.80;99.90;;;;;;5074986;28;20169;-69
2020/12/12 01:20:36;;;;;;;29.37;26.27;;;3.90;99.90;;;;;;5074432;28;20544;-69
2020/12/12 01:23:02;;;;;;;33.83;30.33;;;3.80;99.90;;;;;;5075013;28;20557;-69
2020/12/12 01:25:28;;;;;;;34.43;31.60;;;3.90;99.90;;;;;;5074612;28;20253;-69
2020/12/12 01:27:53;;;;;;;34.53;31.60;;;3.90;99.90;;;;;;5074516;28;20323;-69
2020/12/12 01:30:19;;;;;;;33.97;30.73;;;3.90;99.90;;;;;;5074864;28;20511;-69
2020/12/12 01:32:44;;;;;;;33.30;30.47;;;3.90;99.90;;;;;;5074972;28;20172;-69
2020/12/12 01:35:10;;;;;;;32.60;29.50;;;3.90;99.90;;;;;;5074480;28;20658;-69
2020/12/12 01:37:36;;;;;;;36.30;27.73;;;3.90;99.90;;;;;;5074047;28;20184;-69
2020/12/12 01:40:02;;;;;;;33.50;30.20;;;3.90;99.90;;;;;;5074286;28;20184;-69
2020/12/12 01:42:32;;;;;;;32.10;29.02;;;4.00;99.90;;;;;;5074590;28;20180;-69
2020/12/12 01:44:59;;;;;;;31.90;29.20;;;4.00;99.90;;;;;;5074388;28;20290;-69
2020/12/12 01:47:26;;;;;;;32.50;29.52;;;4.00;99.90;;;;;;5073883;28;20169;-69
2020/12/12 01:49:52;;;;;;;33.67;30.55;;;4.00;99.90;;;;;;5074050;28;20169;-69
2020/12/12 01:52:19;;;;;;;31.85;29.02;;;4.00;99.90;;;;;;5074023;28;20219;-69
2020/12/12 01:54:47;;;;;;;31.55;28.15;;;4.10;99.90;;;;;;5074304;28;20255;-69
2020/12/12 01:57:17;;;;;;;30.45;27.48;;;4.00;99.90;;;;;;5073984;28;20189;-69
2020/12/12 01:59:43;;;;;;;33.13;29.70;;;4.10;99.90;;;;;;5074428;28;20169;-69
2020/12/12 02:02:11;;;;;;;36.23;30.80;;;4.10;99.90;;;;;;5074439;28;20508;-69
2020/12/12 02:04:40;;;;;;;32.28;29.10;;;4.10;99.90;;;;;;5074339;28;20189;-69
2020/12/12 02:07:06;;;;;;;30.42;27.05;;;4.00;99.90;;;;;;5073582;28;20189;-69
2020/12/12 02:09:33;;;;;;;36.07;32.80;;;4.00;99.90;;;;;;5073986;28;20521;-69
2020/12/12 02:12:00;;;;;;;33.97;30.58;;;3.90;99.90;;;;;;5073989;28;20787;-69
2020/12/12 02:14:26;;;;;;;29.27;26.13;;;4.00;99.90;;;;;;5074030;28;20185;-69
2020/12/12 02:16:56;;;;;;;33.10;29.90;;;4.00;99.90;;;;;;5073807;28;20275;-69
2020/12/12 02:19:23;;;;;;;33.05;29.60;;;4.10;99.90;;;;;;5072380;28;20430;-69
2020/12/12 02:21:58;;;;;;;33.05;29.65;;;4.10;99.90;;;;;;5073939;28;20200;-69
2020/12/12 02:24:25;;;;;;;34.30;31.00;;;4.10;99.90;;;;;;5073699;28;20231;-69
2020/12/12 02:26:51;;;;;;;38.60;32.50;;;4.10;99.90;;;;;;5073465;28;20193;-69
2020/12/12 02:29:17;;;;;;;35.97;32.20;;;4.10;99.90;;;;;;5073721;28;20158;-69
2020/12/12 02:31:44;;;;;;;38.17;34.07;;;4.10;99.90;;;;;;5073875;28;20298;-69
2020/12/12 02:34:10;;;;;;;36.60;33.03;;;4.10;99.90;;;;;;5073386;28;20423;-69
2020/12/12 02:36:37;;;;;;;39.67;30.40;;;4.20;99.90;;;;;;5073412;28;20200;-69
2020/12/12 02:39:04;;;;;;;33.72;28.85;;;4.20;99.90;;;;;;5073772;28;20478;-69
2020/12/12 02:41:30;;;;;;;38.70;34.67;;;4.20;99.90;;;;;;5073876;28;20252;-69
2020/12/12 02:43:55;;;;;;;37.80;29.03;;;4.20;99.90;;;;;;5073583;28;20253;-69
2020/12/12 02:46:21;;;;;;;43.57;36.20;;;4.20;99.90;;;;;;5073142;28;20542;-69
2020/12/12 02:48:48;;;;;;;40.73;36.53;;;4.20;99.90;;;;;;5073981;28;20220;-69
2020/12/12 02:51:15;;;;;;;42.63;38.22;;;4.20;99.90;;;;;;5073494;28;20172;-69
2020/12/12 02:53:44;;;;;;;35.97;29.70;;;4.20;99.90;;;;;;5073805;28;20177;-69
2020/12/12 02:56:13;;;;;;;39.33;34.75;;;4.20;99.90;;;;;;5073370;28;20537;-69
2020/12/12 02:58:39;;;;;;;33.22;29.70;;;4.20;99.90;;;;;;5073822;28;20173;-69
2020/12/12 03:01:05;;;;;;;46.53;38.03;;;4.20;99.90;;;;;;5073281;28;20214;-69
2020/12/12 03:03:31;;;;;;;38.30;29.37;;;4.10;99.90;;;;;;5073376;28;20177;-69
2020/12/12 03:05:56;;;;;;;40.23;33.10;;;4.10;99.90;;;;;;5073362;28;20979;-69
2020/12/12 03:08:22;;;;;;;49.63;38.77;;;4.10;99.90;;;;;;5073426;28;20173;-69
2020/12/12 03:10:47;;;;;;;37.23;33.40;;;4.10;99.90;;;;;;5073669;28;20165;-69
2020/12/12 03:13:13;;;;;;;45.13;35.80;;;4.10;99.90;;;;;;5073679;28;20165;-69
2020/12/12 03:15:38;;;;;;;40.90;36.80;;;4.10;99.90;;;;;;5073105;28;20284;-69
2020/12/12 03:18:04;;;;;;;34.83;30.97;;;4.10;99.90;;;;;;5073232;28;20175;-69
2020/12/12 03:20:30;;;;;;;47.53;32.10;;;4.10;99.90;;;;;;5073275;28;20169;-69
2020/12/12 03:22:55;;;;;;;39.77;31.97;;;4.20;99.90;;;;;;5073465;28;20222;-69
2020/12/12 03:25:21;;;;;;;36.70;29.87;;;4.20;99.90;;;;;;5073353;28;20616;-69
2020/12/12 03:27:47;;;;;;;38.10;34.10;;;4.30;99.90;;;;;;5072856;28;20166;-69
2020/12/12 03:30:12;;;;;;;40.70;36.07;;;4.30;99.90;;;;;;5073200;28;20638;-69
2020/12/12 03:32:38;;;;;;;45.00;34.03;;;4.20;99.90;;;;;;5073052;28;20165;-69
2020/12/12 03:35:03;;;;;;;37.20;29.80;;;4.20;99.90;;;;;;5073088;28;20598;-69
2020/12/12 03:37:29;;;;;;;41.70;30.20;;;4.20;99.90;;;;;;5072718;28;20508;-69
2020/12/12 03:39:54;;;;;;;41.80;32.80;;;4.20;99.90;;;;;;5073027;28;20177;-69
2020/12/12 03:42:20;;;;;;;45.90;34.77;;;4.20;99.90;;;;;;5073432;28;20628;-69
2020/12/12 03:44:46;;;;;;;36.40;29.30;;;4.10;99.90;;;;;;5074348;28;20204;-69
2020/12/12 03:47:11;;;;;;;42.80;32.77;;;4.10;99.90;;;;;;5076314;28;20276;-69
2020/12/12 03:49:37;;;;;;;44.87;31.33;;;4.10;99.90;;;;;;5076698;28;20185;-69
2020/12/12 03:52:03;;;;;;;41.40;32.33;;;4.20;99.90;;;;;;5076641;28;20627;-69
2020/12/12 03:54:28;;;;;;;39.83;33.70;;;4.30;99.90;;;;;;5076803;28;20161;-69
2020/12/12 03:56:54;;;;;;;40.20;32.43;;;4.30;99.90;;;;;;5075907;28;20189;-69
2020/12/12 03:59:20;;;;;;;48.40;34.30;;;4.30;99.90;;;;;;5076165;28;20260;-69
2020/12/12 04:01:46;;;;;;;44.53;34.47;;;4.30;99.90;;;;;;5076533;28;20251;-69
2020/12/12 04:04:11;;;;;;;47.93;32.30;;;4.30;99.90;;;;;;5076238;28;20402;-69
2020/12/12 04:06:37;;;;;;;41.53;34.60;;;4.30;99.90;;;;;;5075939;28;20682;-69
2020/12/12 04:09:03;;;;;;;40.70;36.30;;;4.30;99.90;;;;;;5076235;28;20705;-69
2020/12/12 04:11:29;;;;;;;43.92;38.08;;;4.30;99.90;;;;;;5076606;28;20189;-69
2020/12/12 04:13:54;;;;;;;42.20;37.63;;;4.30;99.90;;;;;;5076120;28;20181;-69
2020/12/12 04:16:20;;;;;;;39.40;35.20;;;4.40;99.90;;;;;;5075893;28;20636;-69
2020/12/12 04:18:46;;;;;;;46.17;35.33;;;4.40;99.90;;;;;;5076227;28;20179;-70
2020/12/12 04:21:11;;;;;;;38.80;34.57;;;4.40;99.90;;;;;;5077836;28;20546;-69
2020/12/12 04:23:37;;;;;;;47.10;38.73;;;4.40;99.90;;;;;;5087472;28;20173;-68
2020/12/12 04:26:03;;;;;;;41.13;36.63;;;4.40;99.90;;;;;;5083823;28;20201;-69
2020/12/12 04:28:30;;;;;;;43.80;33.33;;;4.40;99.90;;;;;;5085066;28;20173;-69
2020/12/12 04:30:55;;;;;;;43.78;38.85;;;4.40;99.90;;;;;;5085221;28;20634;-69
2020/12/12 04:33:21;;;;;;;49.70;41.20;;;4.40;99.90;;;;;;5086416;28;20172;-69
2020/12/12 04:35:47;;;;;;;44.25;36.78;;;4.40;99.90;;;;;;5081080;28;20996;-69
2020/12/12 04:38:13;;;;;;;57.13;40.00;;;4.40;99.90;;;;;;5075872;28;20169;-69
2020/12/12 04:40:39;;;;;;;44.63;39.53;;;4.40;99.90;;;;;;5074758;28;20177;-69
2020/12/12 04:43:05;;;;;;;48.00;39.17;;;4.40;99.90;;;;;;5075600;28;20173;-69
2020/12/12 04:45:31;;;;;;;42.07;35.63;;;4.50;99.90;;;;;;5075158;28;20197;-69
2020/12/12 04:47:56;;;;;;;41.70;36.63;;;4.50;99.90;;;;;;5075534;28;20453;-69
2020/12/12 04:50:28;;;;;;;53.10;36.70;;;4.40;99.90;;;;;;5075616;28;20399;-69
2020/12/12 04:52:57;;;;;;;46.75;36.05;;;4.50;99.90;;;;;;5075801;28;20169;-69
2020/12/12 04:55:24;;;;;;;46.90;36.00;;;4.50;99.90;;;;;;5075377;28;20197;-69
2020/12/12 04:57:52;;;;;;;46.15;38.55;;;4.50;99.90;;;;;;5075075;28;20173;-69
2020/12/12 05:00:19;;;;;;;46.70;33.47;;;4.40;99.90;;;;;;5074931;28;20177;-69
2020/12/12 05:02:46;;;;;;;46.50;37.65;;;4.40;99.90;;;;;;5075266;28;20169;-70
2020/12/12 05:05:11;;;;;;;49.47;37.95;;;4.40;99.90;;;;;;5075104;28;20205;-71
2020/12/12 05:07:37;;;;;;;48.60;37.03;;;4.50;99.90;;;;;;5074832;28;20165;-71
2020/12/12 05:10:04;;;;;;;51.90;38.90;;;4.50;99.90;;;;;;5075394;28;20169;-71
2020/12/12 05:12:33;;;;;;;45.78;36.90;;;4.40;99.90;;;;;;5074934;28;20174;-70
2020/12/12 05:14:59;;;;;;;47.55;35.50;;;4.50;99.90;;;;;;5080414;28;20185;-70
2020/12/12 05:17:24;;;;;;;48.07;35.07;;;4.50;99.90;;;;;;5074484;28;20165;-69
2020/12/12 05:19:50;;;;;;;54.47;39.63;;;4.50;99.90;;;;;;5075106;28;20721;-69
2020/12/12 05:22:17;;;;;;;44.03;39.23;;;4.50;99.90;;;;;;5075243;28;20627;-69
2020/12/12 05:24:43;;;;;;;51.97;40.03;;;4.50;99.90;;;;;;5074429;28;20447;-69
2020/12/12 05:27:09;;;;;;;41.63;34.42;;;4.50;99.90;;;;;;5074526;28;20193;-68
2020/12/12 05:29:35;;;;;;;46.67;40.20;;;4.60;99.90;;;;;;5074688;28;20161;-69
2020/12/12 05:32:01;;;;;;;48.83;41.43;;;4.60;99.90;;;;;;5074816;28;20173;-69
2020/12/12 05:34:27;;;;;;;40.78;36.45;;;4.60;99.90;;;;;;5074450;28;20648;-69
2020/12/12 05:36:53;;;;;;;52.10;40.47;;;4.50;99.90;;;;;;5074020;28;20197;-71
2020/12/12 05:39:19;;;;;;;49.55;39.38;;;4.50;99.90;;;;;;5074454;28;20432;-69
2020/12/12 05:41:46;;;;;;;57.67;43.22;;;4.50;99.90;;;;;;5074580;28;20180;-69
2020/12/12 05:44:12;;;;;;;50.55;38.67;;;4.50;99.90;;;;;;5074479;28;20204;-69
2020/12/12 05:46:38;;;;;;;46.45;39.90;;;4.50;99.90;;;;;;5074289;28;20224;-69
2020/12/12 05:49:05;;;;;;;46.20;36.78;;;4.50;99.90;;;;;;5074577;28;20168;-69
2020/12/12 05:51:31;;;;;;;47.80;39.08;;;4.50;99.90;;;;;;5074593;28;20635;-70
2020/12/12 05:53:58;;;;;;;44.45;39.75;;;4.50;99.90;;;;;;5074029;28;20507;-69
2020/12/12 05:56:25;;;;;;;49.30;36.90;;;4.50;99.90;;;;;;5074001;28;20280;-70
2020/12/12 05:58:53;;;;;;;47.88;41.13;;;4.50;99.90;;;;;;5074373;28;20191;-69
2020/12/12 06:01:22;;;;;;;52.45;37.75;;;4.50;99.90;;;;;;5074258;28;20252;-69
2020/12/12 06:04:02;;;;;;;44.92;33.40;;;4.50;99.90;;;;;;5074382;28;20161;-69
2020/12/12 06:06:28;;;;;;;43.50;33.63;;;4.50;99.90;;;;;;5073838;28;20189;-69
2020/12/12 06:09:09;;;;;;;48.40;39.80;;;4.50;99.90;;;;;;5073607;28;20164;-69
2020/12/12 06:11:39;;;;;;;42.55;34.78;;;4.50;99.90;;;;;;5074109;28;20391;-69
2020/12/12 06:14:05;;;;;;;54.72;39.47;;;4.50;99.90;;;;;;5074310;28;20166;-69
2020/12/12 06:16:33;;;;;;;41.65;34.08;;;4.50;99.90;;;;;;5073614;28;20220;-69
2020/12/12 06:19:09;;;;;;;51.92;38.33;;;4.50;99.90;;;;;;5074133;28;20191;-69
2020/12/12 06:21:37;;;;;;;45.67;38.10;;;4.50;99.90;;;;;;5073790;28;20161;-69
2020/12/12 06:24:08;;;;;;;48.47;37.75;;;4.50;99.90;;;;;;5074101;28;20169;-69
2020/12/12 06:27:01;;;;;;;53.05;40.58;;;4.50;99.90;;;;;;5073694;28;20185;-69
2020/12/12 06:29:31;;;;;;;46.92;38.03;;;4.50;99.90;;;;;;5073883;28;20173;-69
2020/12/12 06:31:58;;;;;;;52.50;37.17;;;4.60;99.90;;;;;;5073686;28;20590;-69
2020/12/12 06:34:44;;;;;;;50.03;35.13;;;4.60;99.90;;;;;;5073747;28;20205;-69
2020/12/12 06:37:41;;;;;;;44.55;36.80;;;4.60;99.90;;;;;;5073598;28;20278;-69
2020/12/12 06:40:10;;;;;;;43.05;37.88;;;4.60;99.90;;;;;;5069270;28;20288;-69
2020/12/12 06:42:37;;;;;;;49.20;38.50;;;4.60;99.90;;;;;;5073753;28;20169;-69
2020/12/12 06:45:24;;;;;;;51.60;38.45;;;4.60;99.90;;;;;;5073667;28;20188;-69
2020/12/12 06:47:52;;;;;;;45.58;34.58;;;4.60;99.90;;;;;;5073278;28;20169;-69
2020/12/12 06:50:24;;;;;;;44.38;36.47;;;4.60;99.90;;;;;;5073597;28;20258;-69
2020/12/12 06:52:51;;;;;;;41.42;30.40;;;4.70;99.90;;;;;;5073726;28;20253;-69
2020/12/12 06:55:19;;;;;;;48.15;35.15;;;4.60;99.90;;;;;;5073825;28;20177;-69
2020/12/12 06:57:47;;;;;;;46.55;35.42;;;4.60;99.90;;;;;;5073101;28;20177;-69
2020/12/12 07:00:29;;;;;;;41.78;34.95;;;4.60;99.90;;;;;;5073895;28;20557;-69
2020/12/12 07:02:58;;;;;;;42.83;33.17;;;4.60;99.90;;;;;;5073572;28;20696;-69
2020/12/12 07:05:25;;;;;;;38.00;33.88;;;4.60;99.90;;;;;;5073430;28;20637;-69
2020/12/12 07:07:51;;;;;;;46.90;35.05;;;4.60;99.90;;;;;;5073623;28;20219;-69
2020/12/12 07:10:17;;;;;;;45.53;34.45;;;4.50;99.90;;;;;;5073368;28;20188;-69
2020/12/12 07:12:43;;;;;;;45.17;35.08;;;4.50;99.90;;;;;;5073731;28;20165;-69
2020/12/12 07:15:09;;;;;;;46.10;35.20;;;4.50;99.90;;;;;;5073027;28;20177;-70
2020/12/12 07:17:35;;;;;;;46.00;35.97;;;4.50;99.90;;;;;;5073071;28;20169;-69
2020/12/12 07:20:01;;;;;;;47.23;34.43;;;4.60;99.90;;;;;;5076830;28;20223;-69
2020/12/12 07:22:30;;;;;;;46.17;32.67;;;4.50;99.90;;;;;;5077074;28;20173;-69
2020/12/12 07:24:57;;;;;;;42.40;31.73;;;4.50;99.90;;;;;;5077247;28;20450;-69
2020/12/12 07:27:23;;;;;;;44.30;36.83;;;4.50;99.90;;;;;;5076861;28;20189;-69
2020/12/12 07:29:49;;;;;;;39.65;32.00;;;4.50;99.90;;;;;;5076739;28;20161;-69
2020/12/12 07:32:15;;;;;;;36.77;32.13;;;4.60;99.90;;;;;;5076829;28;20165;-69
2020/12/12 07:34:41;;;;;;;41.17;34.00;;;4.60;99.90;;;;;;5076807;28;20209;-69
2020/12/12 07:37:09;;;;;;;44.23;35.40;;;4.60;99.90;;;;;;5076562;28;20732;-69
2020/12/12 07:39:40;;;;;;;45.15;37.03;;;4.50;99.90;;;;;;5077092;28;20176;-69
2020/12/12 07:42:07;;;;;;;44.65;35.95;;;4.60;99.90;;;;;;5076887;28;20254;-69
2020/12/12 07:44:33;;;;;;;45.05;33.55;;;4.60;99.90;;;;;;5076616;28;20254;-69
2020/12/12 07:47:04;;;;;;;43.30;34.00;;;4.50;99.90;;;;;;5076272;28;20185;-69
2020/12/12 07:49:31;;;;;;;45.70;40.25;;;4.60;99.90;;;;;;5076747;28;20197;-69
2020/12/12 07:52:01;;;;;;;45.92;41.03;;;4.60;99.90;;;;;;5076654;28;20178;-69
2020/12/12 07:54:56;;;;;;;43.97;39.33;;;4.50;99.90;;;;;;5076857;28;20230;-70
2020/12/12 07:57:22;;;;;;;43.47;34.88;;;4.60;99.90;;;;;;5075935;28;20185;-69
2020/12/12 07:59:48;;;;;;;48.37;41.63;;;4.50;99.90;;;;;;5076189;28;20506;-69
2020/12/12 08:02:14;;;;;;;41.60;37.30;;;4.50;99.90;;;;;;5076645;28;20170;-69
2020/12/12 08:04:40;;;;;;;44.22;36.70;;;4.50;99.90;;;;;;5076566;28;20204;-69
2020/12/12 08:07:20;;;;;;;46.80;39.73;;;4.50;99.90;;;;;;5076342;28;20567;-69
2020/12/12 08:09:51;;;;;;;43.55;35.25;;;4.50;99.90;;;;;;5076025;28;20401;-69
2020/12/12 08:12:28;;;;;;;42.35;35.83;;;4.60;99.90;;;;;;5076251;28;20169;-69
2020/12/12 08:14:54;;;;;;;47.05;36.90;;;4.50;99.90;;;;;;5076549;28;20172;-69
2020/12/12 08:17:20;;;;;;;40.53;33.40;;;4.50;99.90;;;;;;5075858;28;20193;-69
2020/12/12 08:19:47;;;;;;;42.90;33.00;;;4.50;99.90;;;;;;5075422;28;20177;-69
2020/12/12 08:22:21;;;;;;;43.65;38.90;;;4.60;99.90;;;;;;5075951;28;20264;-69
2020/12/12 08:24:48;;;;;;;45.17;38.30;;;4.60;99.90;;;;;;5075981;28;20291;-69
2020/12/12 08:27:22;;;;;;;46.00;41.10;;;4.60;99.90;;;;;;5075863;28;20655;-69
2020/12/12 08:29:51;;;;;;;49.20;41.40;;;4.60;99.90;;;;;;5081450;28;20538;-69
2020/12/12 08:32:39;;;;;;;48.60;41.28;;;4.60;99.90;;;;;;5084519;28;20201;-70
2020/12/12 08:35:18;;;;;;;40.33;36.40;;;4.60;99.90;;;;;;5086842;28;20271;-69
2020/12/12 08:38:04;;;;;;;43.40;36.42;;;4.60;99.90;;;;;;5084302;28;20168;-69
2020/12/12 08:40:48;;;;;;;39.35;33.83;;;4.60;99.90;;;;;;5084637;28;20181;-69
2020/12/12 08:43:15;;;;;;;43.88;38.55;;;4.70;99.90;;;;;;5094166;28;20180;-69
2020/12/12 08:45:42;;;;;;;52.83;37.30;;;4.70;99.90;;;;;;5095762;28;20290;-69
2020/12/12 08:48:13;;;;;;;42.10;37.80;;;4.70;99.90;;;;;;5095333;28;20169;-69
2020/12/12 08:50:52;;;;;;;41.58;33.50;;;4.70;99.90;;;;;;5096051;28;20217;-69
2020/12/12 08:53:23;;;;;;;43.83;35.00;;;4.70;99.90;;;;;;5095450;28;20614;-69
2020/12/12 08:56:03;;;;;;;47.63;42.47;;;4.70;99.90;;;;;;5095473;28;20276;-69
2020/12/12 08:58:37;;;;;;;44.38;32.78;;;4.70;99.90;;;;;;5095615;28;20164;-69
2020/12/12 09:01:35;;;;;;;47.50;35.35;;;4.70;99.90;;;;;;5095685;28;20623;-69
2020/12/12 09:04:17;;;;;;;40.67;36.13;;;4.70;99.90;;;;;;5095605;28;20168;-69
2020/12/12 09:06:43;;;;;;;41.47;37.40;;;4.70;99.90;;;;;;5095472;28;20188;-69
2020/12/12 09:09:14;;;;;;;44.53;34.77;;;4.70;99.90;;;;;;5095659;28;20168;-69
2020/12/12 09:11:48;;;;;;;42.08;37.65;;;4.70;99.90;;;;;;5095228;28;20171;-69
2020/12/12 09:14:15;;;;;;;41.92;36.38;;;4.70;99.90;;;;;;5095317;28;20172;-69
2020/12/12 09:16:47;;;;;;;41.78;37.25;;;4.70;99.90;;;;;;5080770;28;20193;-69
2020/12/12 09:19:12;;;;;;;42.08;36.28;;;4.70;99.90;;;;;;5075029;28;20165;-69
2020/12/12 09:21:38;;;;;;;38.93;34.93;;;4.70;99.90;;;;;;5075129;28;20561;-69
2020/12/12 09:24:04;;;;;;;43.27;34.57;;;4.70;99.90;;;;;;5074474;28;20169;-69
2020/12/12 09:26:29;;;;;;;43.50;35.97;;;4.70;99.90;;;;;;5074529;28;20204;-69
2020/12/12 09:28:55;;;;;;;48.90;36.00;;;4.80;99.90;;;;;;5074444;28;20161;-69
2020/12/12 09:31:22;;;;;;;44.33;37.47;;;4.80;99.90;;;;;;5074730;28;20172;-69
2020/12/12 09:33:48;;;;;;;43.28;38.88;;;4.80;99.90;;;;;;5074428;28;20207;-69
2020/12/12 09:36:14;;;;;;;44.27;35.40;;;4.80;99.90;;;;;;5074629;28;20647;-69
2020/12/12 09:38:39;;;;;;;50.97;39.60;;;4.80;99.90;;;;;;5078693;28;20225;-70
2020/12/12 09:41:05;;;;;;;53.57;42.60;;;4.90;99.90;;;;;;5091162;28;20506;-69
2020/12/12 09:43:31;;;;;;;45.70;39.00;;;4.90;99.90;;;;;;5091628;28;20172;-69
2020/12/12 09:45:56;;;;;;;38.90;34.03;;;5.00;99.90;;;;;;5090956;28;20210;-69
2020/12/12 09:48:22;;;;;;;42.00;35.77;;;4.90;99.90;;;;;;5092271;28;20403;-69
2020/12/12 09:50:48;;;;;;;39.50;32.43;;;4.90;99.90;;;;;;5092252;28;20605;-70
2020/12/12 09:53:14;;;;;;;39.37;35.07;;;4.90;99.90;;;;;;5092240;28;20411;-69
2020/12/12 09:55:41;;;;;;;41.20;36.97;;;4.90;99.90;;;;;;5092187;28;20438;-69
2020/12/12 09:58:07;;;;;;;38.20;32.10;;;5.00;99.90;;;;;;5091975;28;20263;-69
2020/12/12 10:00:34;;;;;;;41.63;33.10;;;5.00;99.90;;;;;;5092067;28;20639;-69
2020/12/12 10:03:01;;;;;;;44.47;37.03;;;5.00;99.90;;;;;;5091885;28;20172;-69
2020/12/12 10:05:26;;;;;;;40.92;36.75;;;5.00;99.90;;;;;;5091728;28;20204;-69
2020/12/12 10:07:56;;;;;;;40.37;34.30;;;4.90;99.90;;;;;;5091674;28;20175;-69
2020/12/12 10:10:23;;;;;;;43.92;39.08;;;5.00;99.90;;;;;;5091973;28;20188;-69
2020/12/12 10:12:49;;;;;;;44.65;34.67;;;5.00;99.90;;;;;;5091698;28;20259;-69
2020/12/12 10:15:16;;;;;;;42.07;37.30;;;5.00;99.90;;;;;;5091779;28;20259;-69
2020/12/12 10:17:42;;;;;;;47.65;34.47;;;5.10;99.90;;;;;;5091655;28;20172;-69
2020/12/12 10:20:07;;;;;;;41.37;31.67;;;5.20;99.90;;;;;;5091689;28;20168;-69
2020/12/12 10:22:33;;;;;;;40.93;32.00;;;5.20;99.90;;;;;;5091753;28;20196;-70
2020/12/12 10:24:58;;;;;;;42.37;31.90;;;5.10;99.90;;;;;;5091526;28;20563;-69
2020/12/12 10:27:24;;;;;;;41.70;32.53;;;5.10;99.90;;;;;;5091440;28;20188;-69
2020/12/12 10:29:50;;;;;;;45.33;35.00;;;5.10;99.90;;;;;;5091573;28;20171;-69
2020/12/12 10:32:15;;;;;;;38.40;31.47;;;5.20;99.90;;;;;;5091666;28;20173;-69
2020/12/12 10:34:41;;;;;;;44.33;36.00;;;5.20;99.90;;;;;;5091539;28;20918;-69
2020/12/12 10:37:06;;;;;;;38.77;34.63;;;5.20;99.90;;;;;;5089845;28;20696;-69
2020/12/12 10:39:35;;;;;;;40.23;34.60;;;5.20;99.90;;;;;;5091043;28;20535;-69
2020/12/12 10:42:01;;;;;;;43.08;37.33;;;5.30;99.90;;;;;;5091351;28;20217;-69
2020/12/12 10:44:26;;;;;;;39.20;34.93;;;5.30;99.90;;;;;;5090150;28;20259;-69
2020/12/12 10:46:53;;;;;;;41.80;34.80;;;5.30;99.90;;;;;;5091212;28;20538;-69
2020/12/12 10:49:19;;;;;;;35.25;31.50;;;5.20;99.90;;;;;;5090300;28;20168;-69
2020/12/12 10:51:47;;;;;;;43.08;31.10;;;5.30;99.90;;;;;;5091417;28;20177;-70
2020/12/12 10:54:14;;;;;;;38.33;33.72;;;5.30;99.90;;;;;;5093836;28;20164;-69
2020/12/12 10:56:40;;;;;;;42.28;37.35;;;5.40;99.90;;;;;;5095537;28;20552;-69
2020/12/12 10:59:05;;;;;;;41.07;34.40;;;5.40;99.90;;;;;;5095241;28;20177;-69
2020/12/12 11:01:31;;;;;;;42.27;32.30;;;5.50;99.90;;;;;;5095458;28;20649;-70
2020/12/12 11:03:56;;;;;;;40.23;34.30;;;5.50;99.90;;;;;;5095271;28;20247;-70
2020/12/12 11:06:22;;;;;;;45.83;37.80;;;5.50;99.90;;;;;;5095187;28;20287;-69
2020/12/12 11:08:47;;;;;;;42.37;33.87;;;5.50;99.90;;;;;;5095147;28;20217;-70
2020/12/12 11:11:13;;;;;;;40.10;32.70;;;5.60;99.90;;;;;;5095154;28;20175;-69
2020/12/12 11:13:38;;;;;;;35.87;31.80;;;5.60;99.90;;;;;;5095209;28;20165;-70
2020/12/12 11:16:04;;;;;;;43.70;32.77;;;5.70;99.90;;;;;;5095078;28;20215;-69
2020/12/12 11:18:29;;;;;;;49.10;40.13;;;5.70;99.90;;;;;;5094905;28;20203;-69
2020/12/12 11:20:55;;;;;;;41.03;35.20;;;5.80;99.90;;;;;;5095023;28;20638;-69
2020/12/12 11:23:20;;;;;;;42.37;33.70;;;5.70;99.90;;;;;;5082967;28;20185;-69
2020/12/12 11:25:46;;;;;;;37.47;33.57;;;5.70;99.90;;;;;;5074650;28;20312;-69
2020/12/12 11:28:12;;;;;;;38.97;35.13;;;5.70;99.90;;;;;;5074153;28;20219;-69
2020/12/12 11:30:37;;;;;;;43.70;35.60;;;5.80;99.90;;;;;;5073616;28;20599;-70
2020/12/12 11:33:05;;;;;;;43.37;35.90;;;5.80;99.90;;;;;;5074509;28;20173;-69
2020/12/12 11:35:47;;;;;;;37.13;30.92;;;5.90;99.90;;;;;;5074193;28;20205;-69
2020/12/12 11:40:54;;;;;;;40.07;32.13;;;6.00;99.90;;;;;;5074594;28;20174;-69
2020/12/12 11:48:35;;;;;;;41.17;36.83;;;6.00;99.90;;;;;;5074427;28;20195;-70
2020/12/12 11:51:01;;;;;;;37.67;32.63;;;6.00;99.90;;;;;;5074728;28;20631;-70
2020/12/12 11:53:26;;;;;;;36.33;32.47;;;6.20;99.90;;;;;;5074394;28;20176;-71
2020/12/12 11:55:52;;;;;;;39.30;34.63;;;6.20;99.90;;;;;;5074614;28;20194;-70
2020/12/12 11:58:17;;;;;;;38.77;35.03;;;6.10;99.90;;;;;;5074182;28;20181;-70
2020/12/12 12:00:46;;;;;;;44.47;40.23;;;6.20;99.90;;;;;;5074438;28;20224;-70
2020/12/12 12:03:14;;;;;;;38.58;34.80;;;6.20;99.90;;;;;;5074455;28;20180;-70
2020/12/12 12:05:46;;;;;;;41.42;37.03;;;6.20;99.90;;;;;;5072923;28;20205;-70
2020/12/12 12:11:09;;;;;;;33.97;30.75;;;6.00;99.90;;;;;;5074180;28;20192;-69
2020/12/12 12:13:35;;;;;;;31.50;28.08;;;5.90;99.90;;;;;;5073966;28;20173;-70
2020/12/12 12:16:01;;;;;;;36.17;31.17;;;5.90;99.90;;;;;;5074160;28;20238;-69
2020/12/12 12:18:27;;;;;;;32.50;29.00;;;5.90;99.90;;;;;;5073490;28;20238;-69
2020/12/12 12:20:55;;;;;;;32.80;29.43;;;5.80;99.90;;;;;;5074063;28;20627;-69
2020/12/12 12:23:21;;;;;;;36.08;32.35;;;5.80;99.90;;;;;;5073681;28;20415;-70
2020/12/12 12:25:46;;;;;;;33.30;29.80;;;5.80;99.90;;;;;;5073761;28;20227;-70
2020/12/12 12:28:13;;;;;;;41.07;29.73;;;5.80;99.90;;;;;;5073782;28;20253;-70
2020/12/12 12:30:39;;;;;;;36.38;32.15;;;5.90;99.90;;;;;;5073819;28;20223;-69
2020/12/12 12:33:05;;;;;;;33.93;30.27;;;6.00;99.90;;;;;;5073724;28;20169;-70
2020/12/12 12:35:30;;;;;;;40.03;36.30;;;6.10;99.90;;;;;;5073588;28;20790;-69
2020/12/12 12:37:56;;;;;;;39.00;35.17;;;6.10;99.90;;;;;;5073028;28;20184;-69
2020/12/12 12:40:21;;;;;;;37.07;33.03;;;6.00;99.90;;;;;;5091010;28;20223;-69
2020/12/12 12:42:47;;;;;;;35.47;31.67;;;6.00;99.90;;;;;;5093752;28;20173;-69
2020/12/12 12:45:12;;;;;;;38.70;34.87;;;6.10;99.90;;;;;;5093498;28;20188;-70
2020/12/12 12:47:38;;;;;;;39.17;35.30;;;6.10;99.90;;;;;;5092302;28;20528;-70
2020/12/12 12:50:03;;;;;;;44.43;34.03;;;6.20;99.90;;;;;;5093798;28;20172;-70